sensor_id;sensor_type;location;lat;lon;timestamp;pressure;altitude;pressure_sealevel;temperature;humidity
11692;BME280;33659;42.672;23.354;2024-01-30T00:01:56;67272.22;;;2.67;54.13
11692;BME280;33659;42.672;23.354;2024-01-30T00:04:25;67272.22;;;2.67;54.57
11692;BME280;33659;42.672;23.354;2024-01-30T00:06:51;67273.81;;;2.69;54.67
11692;BME280;33659;42.672;23.354;2024-01-30T00:09:19;67276.09;;;2.74;54.80
11692;BME280;33659;42.672;23.354;2024-01-30T00:11:46;67284.03;;;2.79;54.22
11692;BME280;33659;42.672;23.354;2024-01-30T00:14:12;67284.56;;;2.79;54.44
11692;BME280;33659;42.672;23.354;2024-01-30T00:16:39;67285.66;;;2.80;54.37
11692;BME280;33659;42.672;23.354;2024-01-30T00:19:05;67282.44;;;2.77;54.75
11692;BME280;33659;42.672;23.354;2024-01-30T00:21:34;67275.97;;;2.71;54.75
11692;BME280;33659;42.672;23.354;2024-01-30T00:24:01;67288.09;;;2.78;54.05
11692;BME280;33659;42.672;23.354;2024-01-30T00:26:28;67287.13;;;2.79;54.41
11692;BME280;33659;42.672;23.354;2024-01-30T00:28:55;67286.72;;;2.81;53.82
11692;BME280;33659;42.672;23.354;2024-01-30T00:31:21;67287.25;;;2.82;54.11
11692;BME280;33659;42.672;23.354;2024-01-30T00:33:48;67295.72;;;2.87;54.05
11692;BME280;33659;42.672;23.354;2024-01-30T00:36:15;67288.31;;;2.83;53.96
11692;BME280;33659;42.672;23.354;2024-01-30T00:38:43;67288.31;;;2.83;53.89
11692;BME280;33659;42.672;23.354;2024-01-30T00:41:09;67293.59;;;2.85;54.18
11692;BME280;33659;42.672;23.354;2024-01-30T00:43:36;67294.13;;;2.86;54.00
11692;BME280;33659;42.672;23.354;2024-01-30T00:46:03;67303.66;;;2.92;54.10
11692;BME280;33659;42.672;23.354;2024-01-30T00:48:30;67301.66;;;2.93;53.15
11692;BME280;33659;42.672;23.354;2024-01-30T00:50:56;67301.00;;;2.90;54.02
11692;BME280;33659;42.672;23.354;2024-01-30T00:53:23;67293.72;;;2.88;53.86
11692;BME280;33659;42.672;23.354;2024-01-30T00:55:51;67291.56;;;2.86;53.53
11692;BME280;33659;42.672;23.354;2024-01-30T00:58:17;67297.88;;;2.89;54.16
11692;BME280;33659;42.672;23.354;2024-01-30T01:00:45;67294.78;;;2.89;53.91
11692;BME280;33659;42.672;23.354;2024-01-30T01:03:11;67294.78;;;2.89;53.32
11692;BME280;33659;42.672;23.354;2024-01-30T01:05:39;67290.50;;;2.85;53.61
11692;BME280;33659;42.672;23.354;2024-01-30T01:08:06;67291.97;;;2.84;54.40
11692;BME280;33659;42.672;23.354;2024-01-30T01:10:33;67291.56;;;2.86;54.90
11692;BME280;33659;42.672;23.354;2024-01-30T01:13:01;67288.31;;;2.83;54.89
11692;BME280;33659;42.672;23.354;2024-01-30T01:15:27;67292.63;;;2.87;53.62
11692;BME280;33659;42.672;23.354;2024-01-30T01:17:54;67292.63;;;2.87;54.28
11692;BME280;33659;42.672;23.354;2024-01-30T01:20:21;67290.34;;;2.82;53.08
11692;BME280;33659;42.672;23.354;2024-01-30T01:22:47;67288.31;;;2.83;53.17
11692;BME280;33659;42.672;23.354;2024-01-30T01:25:14;67292.63;;;2.87;53.21
11692;BME280;33659;42.672;23.354;2024-01-30T01:27:41;67293.31;;;2.90;53.02
11692;BME280;33659;42.672;23.354;2024-01-30T01:30:11;67299.63;;;2.93;52.84
11692;BME280;33659;42.672;23.354;2024-01-30T01:32:43;67303.78;;;2.95;52.84
11692;BME280;33659;42.672;23.354;2024-01-30T01:35:15;67297.34;;;2.89;53.07
11692;BME280;33659;42.672;23.354;2024-01-30T01:37:42;67302.72;;;2.94;53.32
11692;BME280;33659;42.672;23.354;2024-01-30T01:40:09;67298.97;;;2.90;53.58
11692;BME280;33659;42.672;23.354;2024-01-30T01:42:36;67293.19;;;2.87;53.25
11692;BME280;33659;42.672;23.354;2024-01-30T01:45:04;67290.88;;;2.83;53.89
11692;BME280;33659;42.672;23.354;2024-01-30T01:47:32;67275.97;;;2.71;53.50
11692;BME280;33659;42.672;23.354;2024-01-30T01:49:59;67262.00;;;2.58;53.74
11692;BME280;33659;42.672;23.354;2024-01-30T01:52:25;67250.81;;;2.50;54.02
11692;BME280;33659;42.672;23.354;2024-01-30T01:54:52;67253.91;;;2.50;54.29
11692;BME280;33659;42.672;23.354;2024-01-30T01:57:19;67256.47;;;2.50;53.88
11692;BME280;33659;42.672;23.354;2024-01-30T01:59:46;67250.81;;;2.50;53.86
11692;BME280;33659;42.672;23.354;2024-01-30T02:02:14;67255.00;;;2.51;53.79
11692;BME280;33659;42.672;23.354;2024-01-30T02:04:45;67253.38;;;2.50;54.34
11692;BME280;33659;42.672;23.354;2024-01-30T02:07:12;67257.00;;;2.51;53.82
11692;BME280;33659;42.672;23.354;2024-01-30T02:09:38;67257.16;;;2.53;54.28
11692;BME280;33659;42.672;23.354;2024-01-30T02:12:06;67250.72;;;2.47;54.42
11692;BME280;33659;42.672;23.354;2024-01-30T02:14:33;67264.00;;;2.57;53.76
11692;BME280;33659;42.672;23.354;2024-01-30T02:16:59;67266.28;;;2.62;53.41
11692;BME280;33659;42.672;23.354;2024-01-30T02:19:26;67280.81;;;2.76;54.13
11692;BME280;33659;42.672;23.354;2024-01-30T02:21:54;67289.81;;;2.82;53.86
11692;BME280;33659;42.672;23.354;2024-01-30T02:24:21;67291.03;;;2.85;53.45
11692;BME280;33659;42.672;23.354;2024-01-30T02:26:47;67295.88;;;2.90;53.73
11692;BME280;33659;42.672;23.354;2024-01-30T02:29:14;67293.72;;;2.88;52.99
11692;BME280;33659;42.672;23.354;2024-01-30T02:31:41;67291.56;;;2.86;53.10
11692;BME280;33659;42.672;23.354;2024-01-30T02:34:07;67291.97;;;2.84;52.62
11692;BME280;33659;42.672;23.354;2024-01-30T02:36:34;67278.00;;;2.70;53.15
11692;BME280;33659;42.672;23.354;2024-01-30T02:39:02;67281.88;;;2.77;53.72
11692;BME280;33659;42.672;23.354;2024-01-30T02:41:29;67285.00;;;2.77;53.59
11692;BME280;33659;42.672;23.354;2024-01-30T02:43:55;67285.66;;;2.80;52.82
11692;BME280;33659;42.672;23.354;2024-01-30T02:46:22;67280.81;;;2.76;52.64
11692;BME280;33659;42.672;23.354;2024-01-30T02:48:48;67274.34;;;2.69;52.44
11692;BME280;33659;42.672;23.354;2024-01-30T02:51:15;67266.81;;;2.62;52.50
11692;BME280;33659;42.672;23.354;2024-01-30T02:53:42;67269.00;;;2.64;52.94
11692;BME280;33659;42.672;23.354;2024-01-30T02:56:10;67263.06;;;2.59;52.83
11692;BME280;33659;42.672;23.354;2024-01-30T02:58:39;67267.78;;;2.61;53.70
11692;BME280;33659;42.672;23.354;2024-01-30T03:01:06;67270.06;;;2.65;52.79
11692;BME280;33659;42.672;23.354;2024-01-30T03:03:33;67256.09;;;2.52;52.58
11692;BME280;33659;42.672;23.354;2024-01-30T03:06:01;67266.81;;;2.62;52.60
11692;BME280;33659;42.672;23.354;2024-01-30T03:08:28;67265.09;;;2.58;52.55
11692;BME280;33659;42.672;23.354;2024-01-30T03:10:54;67258.22;;;2.54;52.81
11692;BME280;33659;42.672;23.354;2024-01-30T03:13:22;67266.81;;;2.62;52.98
11692;BME280;33659;42.672;23.354;2024-01-30T03:15:50;67280.16;;;2.72;52.87
11692;BME280;33659;42.672;23.354;2024-01-30T03:18:17;67280.81;;;2.76;52.65
11692;BME280;33659;42.672;23.354;2024-01-30T03:20:43;67282.28;;;2.75;52.51
11692;BME280;33659;42.672;23.354;2024-01-30T03:23:10;67284.03;;;2.79;52.21
11692;BME280;33659;42.672;23.354;2024-01-30T03:25:37;67293.19;;;2.87;52.40
11692;BME280;33659;42.672;23.354;2024-01-30T03:28:04;67290.88;;;2.83;51.53
11692;BME280;33659;42.672;23.354;2024-01-30T03:30:34;67296.94;;;2.91;51.91
11692;BME280;33659;42.672;23.354;2024-01-30T03:33:00;67299.09;;;2.93;52.47
11692;BME280;33659;42.672;23.354;2024-01-30T03:35:26;67301.25;;;2.95;52.07
11692;BME280;33659;42.672;23.354;2024-01-30T03:37:53;67305.00;;;2.98;51.98
11692;BME280;33659;42.672;23.354;2024-01-30T03:40:19;67308.09;;;2.99;52.02
11692;BME280;33659;42.672;23.354;2024-01-30T03:42:46;67301.25;;;2.95;51.61
11692;BME280;33659;42.672;23.354;2024-01-30T03:45:13;67302.88;;;2.96;51.65
11692;BME280;33659;42.672;23.354;2024-01-30T03:47:43;67307.16;;;3.01;51.63
11692;BME280;33659;42.672;23.354;2024-01-30T03:50:10;67311.31;;;3.02;51.47
11692;BME280;33659;42.672;23.354;2024-01-30T03:52:36;67311.47;;;3.05;51.33
11692;BME280;33659;42.672;23.354;2024-01-30T03:55:04;67309.84;;;3.03;51.65
11692;BME280;33659;42.672;23.354;2024-01-30T03:57:30;67309.84;;;3.03;51.90
11692;BME280;33659;42.672;23.354;2024-01-30T03:59:57;67309.28;;;3.03;51.29
11692;BME280;33659;42.672;23.354;2024-01-30T04:02:24;67312.41;;;3.03;51.35
11692;BME280;33659;42.672;23.354;2024-01-30T04:04:51;67307.69;;;3.01;50.90
11692;BME280;33659;42.672;23.354;2024-01-30T04:07:18;67303.94;;;2.97;50.90
11692;BME280;33659;42.672;23.354;2024-01-30T04:09:44;67305.97;;;2.97;51.11
11692;BME280;33659;42.672;23.354;2024-01-30T04:12:11;67307.03;;;2.98;50.66
11692;BME280;33659;42.672;23.354;2024-01-30T04:14:38;67303.41;;;2.97;50.45
11692;BME280;33659;42.672;23.354;2024-01-30T04:17:05;67304.88;;;2.96;50.61
11692;BME280;33659;42.672;23.354;2024-01-30T04:19:32;67298.56;;;2.92;50.72
11692;BME280;33659;42.672;23.354;2024-01-30T04:22:00;67295.31;;;2.89;50.31
11692;BME280;33659;42.672;23.354;2024-01-30T04:24:27;67296.81;;;2.88;50.51
11692;BME280;33659;42.672;23.354;2024-01-30T04:26:53;67300.16;;;2.94;51.02
11692;BME280;33659;42.672;23.354;2024-01-30T04:29:20;67301.78;;;2.95;50.65
11692;BME280;33659;42.672;23.354;2024-01-30T04:31:47;67309.72;;;3.01;50.36
11692;BME280;33659;42.672;23.354;2024-01-30T04:34:14;67310.94;;;3.04;51.05
11692;BME280;33659;42.672;23.354;2024-01-30T04:36:44;67317.38;;;3.10;50.51
11692;BME280;33659;42.672;23.354;2024-01-30T04:39:12;67317.91;;;3.11;50.42
11692;BME280;33659;42.672;23.354;2024-01-30T04:41:39;67318.47;;;3.11;50.71
11692;BME280;33659;42.672;23.354;2024-01-30T04:44:05;67323.56;;;3.11;51.11
11692;BME280;33659;42.672;23.354;2024-01-30T04:46:32;67322.09;;;3.12;50.62
11692;BME280;33659;42.672;23.354;2024-01-30T04:48:59;67318.56;;;3.14;50.75
11692;BME280;33659;42.672;23.354;2024-01-30T04:51:26;67323.69;;;3.14;50.31
11692;BME280;33659;42.672;23.354;2024-01-30T04:53:53;67322.75;;;3.15;50.65
11692;BME280;33659;42.672;23.354;2024-01-30T04:56:21;67324.22;;;3.14;50.70
11692;BME280;33659;42.672;23.354;2024-01-30T04:58:47;67313.06;;;3.06;50.58
11692;BME280;33659;42.672;23.354;2024-01-30T05:01:15;67303.41;;;2.97;50.77
11692;BME280;33659;42.672;23.354;2024-01-30T05:03:41;67289.00;;;2.86;50.51
11692;BME280;33659;42.672;23.354;2024-01-30T05:06:08;67279.59;;;2.72;50.57
11692;BME280;33659;42.672;23.354;2024-01-30T05:08:35;67279.72;;;2.75;50.40
11692;BME280;33659;42.672;23.354;2024-01-30T05:11:01;67269.00;;;2.64;49.60
11692;BME280;33659;42.672;23.354;2024-01-30T05:13:30;67271.00;;;2.64;49.61
11692;BME280;33659;42.672;23.354;2024-01-30T05:15:57;67266.81;;;2.62;49.46
11692;BME280;33659;42.672;23.354;2024-01-30T05:18:23;67257.81;;;2.56;49.82
11692;BME280;33659;42.672;23.354;2024-01-30T05:20:50;67267.25;;;2.60;50.00
11692;BME280;33659;42.672;23.354;2024-01-30T05:23:17;67267.78;;;2.61;51.05
11692;BME280;33659;42.672;23.354;2024-01-30T05:25:43;67268.84;;;2.62;50.68
11692;BME280;33659;42.672;23.354;2024-01-30T05:28:10;67272.63;;;2.65;50.37
11692;BME280;33659;42.672;23.354;2024-01-30T05:30:38;67269.53;;;2.65;50.95
11692;BME280;33659;42.672;23.354;2024-01-30T05:33:05;67258.75;;;2.55;50.79
11692;BME280;33659;42.672;23.354;2024-01-30T05:35:31;67266.97;;;2.65;50.54
11692;BME280;33659;42.672;23.354;2024-01-30T05:37:58;67266.28;;;2.62;51.07
11692;BME280;33659;42.672;23.354;2024-01-30T05:40:25;67267.25;;;2.60;50.55
11692;BME280;33659;42.672;23.354;2024-01-30T05:42:51;67264.69;;;2.60;51.20
11692;BME280;33659;42.672;23.354;2024-01-30T05:45:18;67269.38;;;2.62;51.39
11692;BME280;33659;42.672;23.354;2024-01-30T05:47:46;67267.38;;;2.63;50.79
11692;BME280;33659;42.672;23.354;2024-01-30T05:50:13;67281.75;;;2.74;50.57
11692;BME280;33659;42.672;23.354;2024-01-30T05:52:40;67281.75;;;2.74;51.07
11692;BME280;33659;42.672;23.354;2024-01-30T05:55:07;67280.25;;;2.75;50.15
11692;BME280;33659;42.672;23.354;2024-01-30T05:57:35;67276.50;;;2.71;50.78
11692;BME280;33659;42.672;23.354;2024-01-30T06:00:01;67278.66;;;2.74;51.56
11692;BME280;33659;42.672;23.354;2024-01-30T06:02:29;67278.66;;;2.74;51.06
11692;BME280;33659;42.672;23.354;2024-01-30T06:04:57;67273.81;;;2.69;51.40
11692;BME280;33659;42.672;23.354;2024-01-30T06:07:23;67291.03;;;2.85;50.47
11692;BME280;33659;42.672;23.354;2024-01-30T06:09:50;67291.97;;;2.84;50.89
11692;BME280;33659;42.672;23.354;2024-01-30T06:12:17;67291.56;;;2.86;51.41
11692;BME280;33659;42.672;23.354;2024-01-30T06:14:43;67289.41;;;2.84;51.16
11692;BME280;33659;42.672;23.354;2024-01-30T06:17:10;67291.41;;;2.83;51.47
11692;BME280;33659;42.672;23.354;2024-01-30T06:19:37;67287.25;;;2.82;52.04
11692;BME280;33659;42.672;23.354;2024-01-30T06:22:05;67283.50;;;2.78;51.30
11692;BME280;33659;42.672;23.354;2024-01-30T06:24:32;67282.97;;;2.78;52.06
11692;BME280;33659;42.672;23.354;2024-01-30T06:26:59;67288.22;;;2.80;52.22
11692;BME280;33659;42.672;23.354;2024-01-30T06:29:26;67278.66;;;2.74;51.82
11692;BME280;33659;42.672;23.354;2024-01-30T06:31:53;67286.72;;;2.81;51.36
11692;BME280;33659;42.672;23.354;2024-01-30T06:34:19;67273.81;;;2.69;50.28
11692;BME280;33659;42.672;23.354;2024-01-30T06:36:46;67266.81;;;2.62;50.28
11692;BME280;33659;42.672;23.354;2024-01-30T06:39:14;67271.53;;;2.64;52.09
11692;BME280;33659;42.672;23.354;2024-01-30T06:41:40;67265.34;;;2.63;51.67
11692;BME280;33659;42.672;23.354;2024-01-30T06:44:07;67277.59;;;2.72;51.23
11692;BME280;33659;42.672;23.354;2024-01-30T06:46:34;67289.81;;;2.82;51.37
11692;BME280;33659;42.672;23.354;2024-01-30T06:49:01;67299.50;;;2.91;50.99
11692;BME280;33659;42.672;23.354;2024-01-30T06:51:28;67306.09;;;2.99;50.51
11692;BME280;33659;42.672;23.354;2024-01-30T06:53:54;67314.56;;;3.05;50.76
11692;BME280;33659;42.672;23.354;2024-01-30T06:56:22;67314.56;;;3.05;49.91
11692;BME280;33659;42.672;23.354;2024-01-30T06:58:49;67298.56;;;2.92;49.99
11692;BME280;33659;42.672;23.354;2024-01-30T07:01:16;67315.63;;;3.06;50.09
11692;BME280;33659;42.672;23.354;2024-01-30T07:03:43;67322.75;;;3.15;50.04
11692;BME280;33659;42.672;23.354;2024-01-30T07:06:10;67330.69;;;3.20;48.54
11692;BME280;33659;42.672;23.354;2024-01-30T07:08:37;67326.53;;;3.19;48.31
11692;BME280;33659;42.672;23.354;2024-01-30T07:11:04;67323.84;;;3.16;47.68
11692;BME280;33659;42.672;23.354;2024-01-30T07:13:32;67294.38;;;2.91;48.11
11692;BME280;33659;42.672;23.354;2024-01-30T07:15:59;67289.81;;;2.82;48.45
11692;BME280;33659;42.672;23.354;2024-01-30T07:18:25;67260.38;;;2.56;48.45
11692;BME280;33659;42.672;23.354;2024-01-30T07:20:52;67251.91;;;2.51;49.09
11692;BME280;33659;42.672;23.354;2024-01-30T07:23:19;67257.00;;;2.51;48.64
11692;BME280;33659;42.672;23.354;2024-01-30T07:25:45;67232.41;;;2.30;49.20
11692;BME280;33659;42.672;23.354;2024-01-30T07:28:14;67223.81;;;2.22;49.71
11692;BME280;33659;42.672;23.354;2024-01-30T07:30:43;67195.34;;;1.95;48.98
11692;BME280;33659;42.672;23.354;2024-01-30T07:33:10;67193.34;;;1.95;50.04
11692;BME280;33659;42.672;23.354;2024-01-30T07:35:36;67204.47;;;2.03;49.32
11692;BME280;33659;42.672;23.354;2024-01-30T07:38:03;67187.97;;;1.90;49.00
11692;BME280;33659;42.672;23.354;2024-01-30T07:40:30;67186.19;;;1.86;48.95
11692;BME280;33659;42.672;23.354;2024-01-30T07:42:58;67195.75;;;1.93;49.13
11692;BME280;33659;42.672;23.354;2024-01-30T07:45:26;67174.41;;;1.75;48.84
11692;BME280;33659;42.672;23.354;2024-01-30T07:47:59;67155.72;;;1.59;49.86
11692;BME280;33659;42.672;23.354;2024-01-30T07:50:26;67150.22;;;1.52;50.27
11692;BME280;33659;42.672;23.354;2024-01-30T07:52:53;67136.78;;;1.39;50.30
11692;BME280;33659;42.672;23.354;2024-01-30T07:55:20;67127.00;;;1.27;50.75
11692;BME280;33659;42.672;23.354;2024-01-30T07:57:49;67140.56;;;1.43;50.54
11692;BME280;33659;42.672;23.354;2024-01-30T08:00:17;67158.16;;;1.57;50.07
11692;BME280;33659;42.672;23.354;2024-01-30T08:02:44;67169.44;;;1.68;49.97
11692;BME280;33659;42.672;23.354;2024-01-30T08:05:12;67189.44;;;1.89;49.84
11692;BME280;33659;42.672;23.354;2024-01-30T08:07:40;67214.16;;;2.12;48.94
11692;BME280;33659;42.672;23.354;2024-01-30T08:10:08;67234.97;;;2.30;48.40
11692;BME280;33659;42.672;23.354;2024-01-30T08:12:34;67249.63;;;2.46;48.89
11692;BME280;33659;42.672;23.354;2024-01-30T08:15:01;67268.72;;;2.59;47.43
11692;BME280;33659;42.672;23.354;2024-01-30T08:17:28;67260.78;;;2.54;47.52
11692;BME280;33659;42.672;23.354;2024-01-30T08:19:55;67252.19;;;2.46;47.78
11692;BME280;33659;42.672;23.354;2024-01-30T08:22:23;67242.09;;;2.39;48.40
11692;BME280;33659;42.672;23.354;2024-01-30T08:24:49;67238.22;;;2.33;48.26
11692;BME280;33659;42.672;23.354;2024-01-30T08:27:17;67242.09;;;2.39;47.69
11692;BME280;33659;42.672;23.354;2024-01-30T08:29:44;67242.66;;;2.39;47.79
11692;BME280;33659;42.672;23.354;2024-01-30T08:32:11;67254.34;;;2.48;47.77
11692;BME280;33659;42.672;23.354;2024-01-30T08:34:38;67253.38;;;2.50;47.92
11692;BME280;33659;42.672;23.354;2024-01-30T08:37:04;67262.53;;;2.58;47.37
11692;BME280;33659;42.672;23.354;2024-01-30T08:39:32;67270.06;;;2.65;47.18
11692;BME280;33659;42.672;23.354;2024-01-30T08:41:59;67302.88;;;2.96;46.77
11692;BME280;33659;42.672;23.354;2024-01-30T08:44:26;67315.75;;;3.09;45.92
11692;BME280;33659;42.672;23.354;2024-01-30T08:46:53;67324.78;;;3.15;45.77
11692;BME280;33659;42.672;23.354;2024-01-30T08:49:20;67320.59;;;3.13;45.83
11692;BME280;33659;42.672;23.354;2024-01-30T08:51:47;67319.94;;;3.10;45.64
11692;BME280;33659;42.672;23.354;2024-01-30T08:54:14;67321.69;;;3.14;45.81
11692;BME280;33659;42.672;23.354;2024-01-30T08:56:42;67340.50;;;3.32;46.13
11692;BME280;33659;42.672;23.354;2024-01-30T08:59:08;67344.81;;;3.36;46.07
11692;BME280;33659;42.672;23.354;2024-01-30T09:01:35;67367.94;;;3.58;45.81
11692;BME280;33659;42.672;23.354;2024-01-30T09:04:02;67396.47;;;3.85;45.08
11692;BME280;33659;42.672;23.354;2024-01-30T09:06:29;67412.63;;;4.00;43.95
11692;BME280;33659;42.672;23.354;2024-01-30T09:08:56;67418.53;;;4.06;44.27
11692;BME280;33659;42.672;23.354;2024-01-30T09:11:23;67429.19;;;4.14;44.18
11692;BME280;33659;42.672;23.354;2024-01-30T09:13:51;67438.44;;;4.25;43.44
11692;BME280;33659;42.672;23.354;2024-01-30T09:16:18;67448.69;;;4.34;43.45
11692;BME280;33659;42.672;23.354;2024-01-30T09:18:45;67470.75;;;4.55;43.37
11692;BME280;33659;42.672;23.354;2024-01-30T09:21:12;67496.06;;;4.79;43.47
11692;BME280;33659;42.672;23.354;2024-01-30T09:23:38;67537.41;;;5.16;42.18
11692;BME280;33659;42.672;23.354;2024-01-30T09:26:05;67563.81;;;5.41;41.39
11692;BME280;33659;42.672;23.354;2024-01-30T09:28:31;67593.56;;;5.71;40.56
11692;BME280;33659;42.672;23.354;2024-01-30T09:30:59;67627.56;;;6.04;40.53
11692;BME280;33659;42.672;23.354;2024-01-30T09:33:26;67649.97;;;6.20;40.22
11692;BME280;33659;42.672;23.354;2024-01-30T09:35:53;67630.13;;;6.04;41.46
11692;BME280;33659;42.672;23.354;2024-01-30T09:38:19;67621.50;;;5.95;41.69
11692;BME280;33659;42.672;23.354;2024-01-30T09:40:53;67611.78;;;5.86;42.12
11692;BME280;33659;42.672;23.354;2024-01-30T09:43:22;67604.78;;;5.80;41.94
11692;BME280;33659;42.672;23.354;2024-01-30T09:45:50;67583.09;;;5.57;42.34
11692;BME280;33659;42.672;23.354;2024-01-30T09:48:19;67562.63;;;5.37;42.97
11692;BME280;33659;42.672;23.354;2024-01-30T09:50:46;67542.78;;;5.21;43.06
11692;BME280;33659;42.672;23.354;2024-01-30T09:53:13;67523.81;;;5.01;43.62
11692;BME280;33659;42.672;23.354;2024-01-30T09:55:42;67505.09;;;4.85;44.10
11692;BME280;33659;42.672;23.354;2024-01-30T09:58:09;67501.72;;;4.80;44.36
11692;BME280;33659;42.672;23.354;2024-01-30T10:00:36;67504.56;;;4.85;44.40
11692;BME280;33659;42.672;23.354;2024-01-30T10:03:03;67513.16;;;4.93;43.81
11692;BME280;33659;42.672;23.354;2024-01-30T10:05:31;67531.34;;;5.08;43.57
11692;BME280;33659;42.672;23.354;2024-01-30T10:07:59;67551.56;;;5.32;43.55
11692;BME280;33659;42.672;23.354;2024-01-30T10:10:25;67591.31;;;5.67;42.35
11692;BME280;33659;42.672;23.354;2024-01-30T10:12:52;67609.75;;;5.87;42.22
11692;BME280;33659;42.672;23.354;2024-01-30T10:15:19;67638.78;;;6.12;41.63
11692;BME280;33659;42.672;23.354;2024-01-30T10:17:45;67665.19;;;6.37;41.56
11692;BME280;33659;42.672;23.354;2024-01-30T10:20:13;67694.19;;;6.62;40.59
11692;BME280;33659;42.672;23.354;2024-01-30T10:22:41;67702.94;;;6.72;40.31
11692;BME280;33659;42.672;23.354;2024-01-30T10:25:09;67704.56;;;6.74;40.43
11692;BME280;33659;42.672;23.354;2024-01-30T10:27:36;67723.97;;;6.92;39.66
11692;BME280;33659;42.672;23.354;2024-01-30T10:30:03;67731.53;;;6.99;39.37
11692;BME280;33659;42.672;23.354;2024-01-30T10:32:30;67743.84;;;7.09;39.46
11692;BME280;33659;42.672;23.354;2024-01-30T10:34:57;67732.63;;;7.00;39.58
11692;BME280;33659;42.672;23.354;2024-01-30T10:37:25;67746.63;;;7.14;38.98
11692;BME280;33659;42.672;23.354;2024-01-30T10:39:54;67763.78;;;7.27;38.59
11692;BME280;33659;42.672;23.354;2024-01-30T10:42:26;67758.09;;;7.27;38.91
11692;BME280;33659;42.672;23.354;2024-01-30T10:44:58;67760.66;;;7.27;38.84
11692;BME280;33659;42.672;23.354;2024-01-30T10:47:27;67747.19;;;7.14;39.07
11692;BME280;33659;42.672;23.354;2024-01-30T10:49:54;67738.00;;;7.05;39.05
11692;BME280;33659;42.672;23.354;2024-01-30T10:52:23;67749.34;;;7.16;38.93
11692;BME280;33659;42.672;23.354;2024-01-30T10:54:51;67752.03;;;7.19;38.73
11692;BME280;33659;42.672;23.354;2024-01-30T10:57:19;67788.19;;;7.53;38.50
11692;BME280;33659;42.672;23.354;2024-01-30T10:59:47;67796.31;;;7.60;38.27
11692;BME280;33659;42.672;23.354;2024-01-30T11:02:14;67811.81;;;7.73;37.84
11692;BME280;33659;42.672;23.354;2024-01-30T11:04:42;67772.56;;;7.38;38.34
11692;BME280;33659;42.672;23.354;2024-01-30T11:07:14;67762.84;;;7.29;40.91
11692;BME280;33659;42.672;23.354;2024-01-30T11:09:48;67738.00;;;7.05;41.31
11692;BME280;33659;42.672;23.354;2024-01-30T11:12:15;67708.34;;;6.77;42.50
11692;BME280;33659;42.672;23.354;2024-01-30T11:14:43;67676.63;;;6.50;41.47
11692;BME280;33659;42.672;23.354;2024-01-30T11:17:10;67663.69;;;6.38;42.51
11692;BME280;33659;42.672;23.354;2024-01-30T11:19:37;67642.97;;;6.13;42.71
11692;BME280;33659;42.672;23.354;2024-01-30T11:22:06;67660.75;;;6.30;43.92
11692;BME280;33659;42.672;23.354;2024-01-30T11:24:39;67676.09;;;6.49;44.70
11692;BME280;33659;42.672;23.354;2024-01-30T11:27:08;67719.13;;;6.88;42.28
11692;BME280;33659;42.672;23.354;2024-01-30T11:29:35;67721.69;;;6.88;44.02
11692;BME280;33659;42.672;23.354;2024-01-30T11:32:05;67732.22;;;7.02;42.49
11692;BME280;33659;42.672;23.354;2024-01-30T11:34:32;67786.59;;;7.51;41.34
11692;BME280;33659;42.672;23.354;2024-01-30T11:37:03;67872.44;;;8.32;40.72
11692;BME280;33659;42.672;23.354;2024-01-30T11:39:32;67878.16;;;8.33;37.52
11692;BME280;33659;42.672;23.354;2024-01-30T11:41:59;67862.06;;;8.20;38.37
11692;BME280;33659;42.672;23.354;2024-01-30T11:44:26;67812.94;;;7.74;39.01
11692;BME280;33659;42.672;23.354;2024-01-30T11:46:53;67776.34;;;7.42;40.71
11692;BME280;33659;42.672;23.354;2024-01-30T11:49:21;67740.84;;;7.11;40.51
11692;BME280;33659;42.672;23.354;2024-01-30T11:51:48;67740.16;;;7.07;41.03
11692;BME280;33659;42.672;23.354;2024-01-30T11:54:15;67746.78;;;7.16;42.10
11692;BME280;33659;42.672;23.354;2024-01-30T11:56:42;67751.38;;;7.16;41.13
11692;BME280;33659;42.672;23.354;2024-01-30T11:59:09;67788.19;;;7.53;39.52
11692;BME280;33659;42.672;23.354;2024-01-30T12:01:36;67857.19;;;8.15;39.68
11692;BME280;33659;42.672;23.354;2024-01-30T12:04:03;67915.13;;;8.73;38.86
11692;BME280;33659;42.672;23.354;2024-01-30T12:06:35;67958.25;;;9.11;37.54
11692;BME280;33659;42.672;23.354;2024-01-30T12:09:02;67952.97;;;9.08;36.82
11692;BME280;33659;42.672;23.354;2024-01-30T12:11:30;67950.25;;;9.06;36.41
11692;BME280;33659;42.672;23.354;2024-01-30T12:13:57;67995.53;;;9.46;35.84
11692;BME280;33659;42.672;23.354;2024-01-30T12:16:24;68012.97;;;9.65;35.17
11692;BME280;33659;42.672;23.354;2024-01-30T12:18:59;68005.16;;;9.53;35.09
11692;BME280;33659;42.672;23.354;2024-01-30T12:21:26;67957.28;;;9.12;35.42
11692;BME280;33659;42.672;23.354;2024-01-30T12:23:54;67898.81;;;8.55;36.58
11692;BME280;33659;42.672;23.354;2024-01-30T12:26:21;67893.41;;;8.50;36.63
11692;BME280;33659;42.672;23.354;2024-01-30T12:28:48;67875.03;;;8.32;36.52
11692;BME280;33659;42.672;23.354;2024-01-30T12:31:15;67840.56;;;8.02;37.28
11692;BME280;33659;42.672;23.354;2024-01-30T12:33:42;67936.09;;;8.90;36.93
11692;BME280;33659;42.672;23.354;2024-01-30T12:36:09;68093.47;;;10.38;34.21
11692;BME280;33659;42.672;23.354;2024-01-30T12:38:36;68198.03;;;11.39;32.79
11692;BME280;33659;42.672;23.354;2024-01-30T12:41:04;68326.31;;;12.57;30.67
11692;BME280;33659;42.672;23.354;2024-01-30T12:43:33;68387.66;;;13.17;30.05
11692;BME280;33659;42.672;23.354;2024-01-30T12:45:59;68547.53;;;14.62;27.88
11692;BME280;33659;42.672;23.354;2024-01-30T12:48:26;68641.97;;;15.51;27.08
11692;BME280;33659;42.672;23.354;2024-01-30T12:50:54;68762.63;;;16.64;25.87
11692;BME280;33659;42.672;23.354;2024-01-30T12:53:21;68840.94;;;17.38;24.36
11692;BME280;33659;42.672;23.354;2024-01-30T12:55:47;68904.03;;;17.97;23.83
11692;BME280;33659;42.672;23.354;2024-01-30T12:58:16;69007.91;;;18.91;23.19
11692;BME280;33659;42.672;23.354;2024-01-30T13:00:43;69123.41;;;19.99;22.20